createdAt,value
2018-09-28T00:00:21.085Z,12.36
2018-09-28T00:01:21.078Z,12.28
2018-09-28T00:02:21.074Z,12.31
2018-09-28T00:03:21.065Z,12.29
2018-09-28T00:04:21.072Z,12.32
2018-09-28T00:05:21.057Z,12.28
2018-09-28T00:06:21.048Z,12.32
2018-09-28T00:07:21.042Z,12.36
2018-09-28T00:08:21.040Z,12.45
2018-09-28T00:09:21.030Z,12.29
2018-09-28T00:10:21.024Z,12.29
2018-09-28T00:11:21.017Z,12.24
2018-09-28T00:12:21.014Z,12.29
2018-09-28T00:13:21.007Z,12.35
2018-09-28T00:14:20.996Z,12.22
2018-09-28T00:15:20.992Z,12.35
2018-09-28T00:16:20.985Z,12.31
2018-09-28T00:17:20.978Z,12.29
2018-09-28T00:18:20.971Z,12.21
2018-09-28T00:19:20.966Z,12.22
2018-09-28T00:20:20.960Z,12.22
2018-09-28T00:21:20.957Z,12.20
2018-09-28T00:22:20.949Z,12.15
2018-09-28T00:23:20.940Z,12.15
2018-09-28T00:24:20.932Z,12.07
2018-09-28T00:25:20.924Z,12.09
2018-09-28T00:26:20.917Z,12.07
2018-09-28T00:27:20.920Z,12.06
2018-09-28T00:28:20.912Z,12.04
2018-09-28T00:29:20.906Z,12.04
2018-09-28T00:30:20.895Z,12.09
2018-09-28T00:31:20.892Z,12.07
2018-09-28T00:32:20.882Z,12.00
2018-09-28T00:33:20.872Z,12.02
2018-09-28T00:34:20.870Z,12.02
2018-09-28T00:35:20.868Z,11.95
2018-09-28T00:36:20.858Z,11.86
2018-09-28T00:37:20.849Z,11.88
2018-09-28T00:38:20.846Z,11.84
2018-09-28T00:39:20.837Z,11.69
2018-09-28T00:40:20.829Z,11.78
2018-09-28T00:41:20.826Z,11.72
2018-09-28T00:42:20.820Z,11.65
2018-09-28T00:43:20.811Z,11.65
2018-09-28T00:44:20.804Z,11.63
2018-09-28T00:45:20.804Z,11.48
2018-09-28T00:46:20.797Z,11.54
2018-09-28T00:47:20.784Z,11.54
2018-09-28T00:48:20.775Z,11.62
2018-09-28T00:49:20.773Z,11.44
2018-09-28T00:50:20.769Z,11.43
2018-09-28T00:51:20.758Z,11.54
2018-09-28T00:52:20.751Z,11.52
2018-09-28T00:53:20.743Z,11.51
2018-09-28T00:54:20.737Z,11.52
2018-09-28T00:55:20.734Z,11.51
2018-09-28T00:56:20.724Z,11.45
2018-09-28T00:57:20.718Z,11.41
2018-09-28T00:58:20.714Z,11.52
2018-09-28T00:59:20.706Z,11.47
2018-09-28T01:00:20.696Z,11.50
2018-09-28T01:01:20.693Z,11.45
2018-09-28T01:02:20.743Z,11.51
2018-09-28T01:03:20.679Z,11.41
2018-09-28T01:04:20.671Z,11.48
2018-09-28T01:05:20.669Z,11.55
2018-09-28T01:06:20.656Z,11.41
2018-09-28T01:07:20.652Z,11.51
2018-09-28T01:08:20.651Z,11.43
2018-09-28T01:09:20.640Z,11.44
2018-09-28T01:10:20.638Z,11.41
2018-09-28T01:11:20.625Z,11.41
2018-09-28T01:12:20.619Z,11.33
2018-09-28T01:13:20.614Z,11.35
2018-09-28T01:14:20.605Z,11.22
2018-09-28T01:15:20.604Z,11.27
2018-09-28T01:16:20.593Z,11.14
2018-09-28T01:17:20.584Z,11.12
2018-09-28T01:18:20.585Z,11.14
2018-09-28T01:19:20.569Z,11.11
2018-09-28T01:20:20.562Z,11.14
2018-09-28T01:21:20.560Z,11.14
2018-09-28T01:22:20.555Z,11.08
2018-09-28T01:23:20.544Z,11.08
2018-09-28T01:24:20.539Z,11.14
2018-09-28T01:25:20.532Z,11.05
2018-09-28T01:26:20.521Z,11.17
2018-09-28T01:27:20.520Z,11.12
2018-09-28T01:28:20.510Z,11.02
2018-09-28T01:29:20.505Z,11.08
2018-09-28T01:30:20.497Z,11.14
2018-09-28T01:31:20.489Z,11.05
2018-09-28T01:32:20.491Z,10.97
2018-09-28T01:33:20.476Z,10.96
2018-09-28T01:34:20.471Z,11.04
2018-09-28T01:35:20.460Z,11.04
2018-09-28T01:36:20.457Z,11.10
2018-09-28T01:38:42.055Z,10.92
2018-09-28T01:39:42.016Z,10.93
2018-09-28T01:40:42.009Z,10.94
2018-09-28T01:41:42.005Z,10.94
2018-09-28T01:42:42.000Z,10.94
2018-09-28T01:43:41.988Z,10.94
2018-09-28T01:44:41.995Z,10.79
2018-09-28T01:45:41.977Z,10.82
2018-09-28T01:46:41.967Z,10.78
2018-09-28T01:47:41.969Z,10.76
2018-09-28T01:48:41.954Z,10.68
2018-09-28T01:49:41.945Z,10.71
2018-09-28T01:50:41.944Z,10.64
2018-09-28T01:51:41.942Z,10.69
2018-09-28T01:52:41.930Z,10.71
2018-09-28T01:53:41.927Z,10.67
2018-09-28T01:54:41.916Z,10.76
2018-09-28T01:55:41.909Z,10.79
2018-09-28T01:56:41.900Z,10.78
2018-09-28T01:57:41.895Z,10.86
2018-09-28T01:58:41.886Z,10.92
2018-09-28T01:59:41.883Z,10.81
2018-09-28T02:00:41.875Z,10.89
2018-09-28T02:01:41.867Z,10.96
2018-09-28T02:02:41.857Z,10.92
2018-09-28T02:03:41.851Z,11.02
2018-09-28T02:04:41.846Z,10.99
2018-09-28T02:05:41.837Z,10.92
2018-09-28T02:06:41.834Z,10.96
2018-09-28T02:07:41.831Z,10.94
2018-09-28T02:08:41.824Z,11.00
2018-09-28T02:09:41.811Z,11.00
2018-09-28T02:10:41.804Z,11.07
2018-09-28T02:11:41.800Z,11.02
2018-09-28T02:12:41.801Z,11.00
2018-09-28T02:13:41.781Z,11.10
2018-09-28T02:14:41.779Z,11.11
2018-09-28T02:15:41.776Z,11.11
2018-09-28T02:16:41.764Z,11.17
2018-09-28T02:17:41.750Z,11.26
2018-09-28T02:18:41.754Z,11.27
2018-09-28T02:19:41.743Z,11.32
2018-09-28T02:20:41.739Z,11.33
2018-09-28T02:21:41.732Z,11.43
2018-09-28T02:22:41.721Z,11.43
2018-09-28T02:23:41.721Z,11.47
2018-09-28T02:24:41.710Z,11.37
2018-09-28T02:25:41.700Z,11.43
2018-09-28T02:26:41.722Z,11.41
2018-09-28T02:27:41.692Z,11.55
2018-09-28T02:28:41.690Z,11.60
2018-09-28T02:29:41.685Z,11.57
2018-09-28T02:30:41.672Z,11.52
2018-09-28T02:31:41.660Z,11.57
2018-09-28T02:32:41.654Z,11.65
2018-09-28T02:33:41.649Z,11.63
2018-09-28T02:34:41.671Z,11.65
2018-09-28T02:35:41.643Z,11.57
2018-09-28T02:36:41.634Z,11.63
2018-09-28T02:37:41.621Z,11.69
2018-09-28T02:38:41.623Z,11.75
2018-09-28T02:39:41.607Z,11.75
2018-09-28T02:40:41.601Z,11.70
2018-09-28T02:41:41.596Z,11.80
2018-09-28T02:42:41.592Z,11.84
2018-09-28T02:43:41.585Z,11.86
2018-09-28T02:44:41.589Z,11.94
2018-09-28T02:45:41.571Z,11.88
2018-09-28T02:46:41.564Z,11.91
2018-09-28T02:47:41.562Z,11.95
2018-09-28T02:48:41.550Z,11.87
2018-09-28T02:49:41.546Z,11.87
2018-09-28T02:50:41.545Z,11.90
2018-09-28T02:51:41.541Z,11.87
2018-09-28T02:52:41.528Z,11.84
2018-09-28T02:53:41.519Z,11.86
2018-09-28T02:54:41.510Z,11.90
2018-09-28T02:55:41.505Z,11.90
2018-09-28T02:56:41.505Z,11.90
2018-09-28T02:57:41.495Z,11.90
2018-09-28T02:58:41.489Z,11.83
2018-09-28T02:59:41.483Z,12.00
2018-09-28T03:00:41.474Z,11.99
2018-09-28T03:01:42.401Z,11.99
2018-09-28T03:02:41.463Z,12.03
2018-09-28T03:03:41.456Z,12.00
2018-09-28T03:04:41.449Z,11.99
2018-09-28T03:05:41.464Z,12.07
2018-09-28T03:06:41.437Z,12.12
2018-09-28T03:07:41.426Z,12.07
2018-09-28T03:08:41.420Z,12.20
2018-09-28T03:09:41.418Z,12.09
2018-09-28T03:10:41.408Z,12.22
2018-09-28T03:11:41.404Z,12.20
2018-09-28T03:12:41.402Z,12.24
2018-09-28T03:13:41.386Z,12.24
2018-09-28T03:14:41.386Z,12.18
2018-09-28T03:15:41.377Z,12.24
2018-09-28T03:16:41.384Z,12.24
2018-09-28T03:17:41.363Z,12.22
2018-09-28T03:18:41.358Z,12.31
2018-09-28T03:19:41.352Z,12.25
2018-09-28T03:20:41.346Z,12.18
2018-09-28T03:21:41.340Z,12.31
2018-09-28T03:22:41.338Z,12.31
2018-09-28T03:23:41.335Z,12.28
2018-09-28T03:24:41.321Z,12.31
2018-09-28T03:25:41.359Z,12.27
2018-09-28T03:26:41.312Z,12.25
2018-09-28T03:27:41.307Z,12.28
2018-09-28T03:28:41.299Z,12.28
2018-09-28T03:29:41.294Z,12.37
2018-09-28T03:30:41.286Z,12.36
2018-09-28T03:31:41.277Z,12.35
2018-09-28T03:32:41.272Z,12.32
2018-09-28T03:33:41.275Z,12.36
2018-09-28T03:34:41.266Z,12.49
2018-09-28T03:35:41.261Z,12.47
2018-09-28T03:36:41.249Z,12.47
2018-09-28T03:37:41.246Z,12.49
2018-09-28T03:38:41.238Z,12.49
2018-09-28T03:39:41.236Z,12.53
2018-09-28T03:40:41.301Z,12.49
2018-09-28T03:41:41.216Z,12.54
2018-09-28T03:42:41.216Z,12.47
2018-09-28T03:43:41.210Z,12.57
2018-09-28T03:44:55.926Z,12.62
2018-09-28T03:45:41.195Z,12.61
2018-09-28T03:46:41.193Z,12.61
2018-09-28T03:47:41.191Z,12.68
2018-09-28T03:48:41.178Z,12.72
2018-09-28T03:49:41.177Z,12.65
2018-09-28T03:50:41.163Z,12.70
2018-09-28T03:51:41.157Z,12.68
2018-09-28T03:52:41.150Z,12.64
2018-09-28T03:53:41.148Z,12.73
2018-09-28T03:54:41.142Z,12.73
2018-09-28T03:55:41.136Z,12.75
2018-09-28T03:56:41.131Z,12.70
2018-09-28T03:57:41.120Z,12.72
2018-09-28T03:58:41.118Z,12.73
2018-09-28T03:59:41.110Z,12.76
2018-09-28T04:00:41.116Z,12.70
2018-09-28T04:01:41.098Z,12.68
2018-09-28T04:02:41.094Z,12.70
2018-09-28T04:03:41.084Z,12.70
2018-09-28T04:04:41.080Z,12.68
2018-09-28T04:05:41.079Z,12.68
2018-09-28T04:06:41.066Z,12.78
2018-09-28T04:07:41.062Z,12.70
2018-09-28T04:08:41.069Z,12.79
2018-09-28T04:09:41.052Z,12.83
2018-09-28T04:10:41.043Z,12.82
2018-09-28T04:11:41.034Z,12.76
2018-09-28T04:12:41.030Z,12.86
2018-09-28T04:13:41.027Z,12.79
2018-09-28T04:14:41.020Z,12.80
2018-09-28T04:15:41.020Z,12.79
2018-09-28T04:16:41.009Z,12.80
2018-09-28T04:17:41.000Z,12.86
2018-09-28T04:18:40.993Z,12.97
2018-09-28T04:19:40.987Z,12.93
2018-09-28T04:20:40.981Z,12.87
2018-09-28T04:21:41.006Z,12.93
2018-09-28T04:22:40.973Z,12.87
2018-09-28T04:23:40.969Z,12.87
2018-09-28T04:24:40.958Z,12.90
2018-09-28T04:25:40.952Z,12.93
2018-09-28T04:26:40.949Z,12.86
2018-09-28T04:27:40.942Z,12.93
2018-09-28T04:28:40.938Z,13.00
2018-09-28T04:29:40.935Z,12.97
2018-09-28T04:30:40.932Z,12.98
2018-09-28T04:31:40.929Z,13.03
2018-09-28T04:32:40.912Z,13.03
2018-09-28T04:33:40.905Z,13.01
2018-09-28T04:34:40.903Z,13.03
2018-09-28T04:35:40.902Z,13.05
2018-09-28T04:36:40.890Z,13.04
2018-09-28T04:37:40.884Z,13.08
2018-09-28T04:38:40.877Z,13.05
2018-09-28T04:39:40.880Z,13.03
2018-09-28T04:40:40.865Z,13.11
2018-09-28T04:41:40.858Z,13.08
2018-09-28T04:42:40.853Z,13.13
2018-09-28T04:43:40.850Z,13.11
2018-09-28T04:44:40.850Z,13.15
2018-09-28T04:45:40.913Z,13.08
2018-09-28T04:46:40.828Z,13.09
2018-09-28T04:47:40.829Z,13.12
2018-09-28T04:48:40.819Z,13.13
2018-09-28T04:49:40.821Z,13.18
2018-09-28T04:50:40.806Z,13.12
2018-09-28T04:51:40.803Z,13.19
2018-09-28T04:52:40.800Z,13.22
2018-09-28T04:53:40.791Z,13.23
2018-09-28T04:54:40.794Z,13.31
2018-09-28T04:55:40.779Z,13.25
2018-09-28T04:56:40.773Z,13.27
2018-09-28T04:57:40.767Z,13.33
2018-09-28T04:58:40.766Z,13.35
2018-09-28T04:59:40.760Z,13.31
2018-09-28T05:00:40.747Z,13.31
2018-09-28T05:01:40.743Z,13.37
2018-09-28T05:02:40.742Z,13.41
2018-09-28T05:03:40.732Z,13.38
2018-09-28T05:04:40.730Z,13.41
2018-09-28T05:05:40.726Z,13.41
2018-09-28T05:06:40.721Z,13.54
2018-09-28T05:07:40.712Z,13.56
2018-09-28T05:08:40.711Z,13.65
2018-09-28T05:09:40.700Z,13.53
2018-09-28T05:10:40.696Z,13.62
2018-09-28T05:11:40.706Z,13.62
2018-09-28T05:12:40.854Z,13.60
2018-09-28T05:13:40.678Z,13.65
2018-09-28T05:14:40.696Z,13.65
2018-09-28T05:15:40.670Z,13.70
2018-09-28T05:16:40.658Z,13.72
2018-09-28T05:17:40.655Z,13.75
2018-09-28T05:18:40.652Z,13.71
2018-09-28T05:19:40.646Z,13.75
2018-09-28T05:20:40.647Z,13.72
2018-09-28T05:21:40.632Z,13.78
2018-09-28T05:22:40.651Z,13.83
2018-09-28T05:23:40.623Z,13.78
2018-09-28T05:24:40.619Z,13.78
2018-09-28T05:25:40.612Z,13.81
2018-09-28T05:26:40.602Z,13.85
2018-09-28T05:27:40.602Z,13.83
2018-09-28T05:28:40.593Z,13.81
2018-09-28T05:29:41.473Z,13.81
2018-09-28T05:30:44.966Z,13.78
2018-09-28T05:31:40.702Z,13.83
2018-09-28T05:32:40.787Z,13.87
2018-09-28T05:33:40.562Z,13.85
2018-09-28T05:34:40.560Z,13.87
2018-09-28T05:35:40.559Z,13.83
2018-09-28T05:36:40.548Z,13.87
2018-09-28T05:37:40.540Z,13.87
2018-09-28T05:38:40.535Z,13.85
2018-09-28T05:39:40.532Z,13.85
2018-09-28T05:40:40.523Z,13.92
2018-09-28T05:41:40.522Z,13.92
2018-09-28T05:42:40.515Z,13.90
2018-09-28T05:43:40.549Z,13.97
2018-09-28T05:44:40.503Z,13.97
2018-09-28T05:45:40.512Z,13.93
2018-09-28T05:46:40.497Z,13.97
2018-09-28T05:47:40.486Z,13.97
2018-09-28T05:48:40.483Z,13.99
2018-09-28T05:49:40.475Z,13.96
2018-09-28T05:50:40.466Z,13.96
2018-09-28T05:51:40.466Z,13.96
2018-09-28T05:52:40.476Z,13.93
2018-09-28T05:53:40.452Z,13.96
2018-09-28T05:54:40.458Z,13.97
2018-09-28T05:55:40.456Z,14.08
2018-09-28T05:56:40.437Z,14.04
2018-09-28T05:57:40.429Z,14.04
2018-09-28T05:58:40.508Z,14.00
2018-09-28T05:59:40.419Z,13.97
2018-09-28T06:00:40.412Z,13.97
2018-09-28T06:01:40.409Z,14.08
2018-09-28T06:02:40.400Z,13.97
2018-09-28T06:03:40.403Z,14.00
2018-09-28T06:04:40.391Z,13.93
2018-09-28T06:05:40.516Z,13.92
2018-09-28T06:06:40.377Z,13.96
2018-09-28T06:07:40.376Z,13.95
2018-09-28T06:08:40.369Z,13.97
2018-09-28T06:09:40.360Z,13.97
2018-09-28T06:10:40.355Z,14.03
2018-09-28T06:11:40.350Z,13.99
2018-09-28T06:12:40.345Z,13.97
2018-09-28T06:13:40.335Z,13.95
2018-09-28T06:14:40.332Z,13.99
2018-09-28T06:15:40.333Z,13.96
2018-09-28T06:16:40.326Z,13.96
2018-09-28T06:17:40.315Z,13.95
2018-09-28T06:18:40.405Z,13.99
2018-09-28T06:19:40.311Z,13.95
2018-09-28T06:20:40.298Z,13.96
2018-09-28T06:21:40.294Z,13.96
2018-09-28T06:22:40.287Z,14.00
2018-09-28T06:23:40.281Z,14.00
2018-09-28T06:24:40.280Z,13.87
2018-09-28T06:25:40.266Z,13.89
2018-09-28T06:26:40.262Z,13.87
2018-09-28T06:27:40.262Z,13.90
2018-09-28T06:28:40.256Z,13.93
2018-09-28T06:29:40.287Z,13.89
2018-09-28T06:30:40.254Z,13.87
2018-09-28T06:31:40.235Z,13.78
2018-09-28T06:32:40.229Z,13.77
2018-09-28T06:33:40.222Z,13.81
2018-09-28T06:34:40.215Z,13.75
2018-09-28T06:35:40.233Z,13.75
2018-09-28T06:36:40.208Z,13.72
2018-09-28T06:37:40.199Z,13.63
2018-09-28T06:38:40.193Z,13.71
2018-09-28T06:39:40.187Z,13.60
2018-09-28T06:40:40.185Z,13.63
2018-09-28T06:41:40.227Z,13.60
2018-09-28T06:42:40.167Z,13.63
2018-09-28T06:43:40.168Z,13.59
2018-09-28T06:44:40.207Z,13.52
2018-09-28T06:45:40.152Z,13.52
2018-09-28T06:46:40.144Z,13.52
2018-09-28T06:47:40.147Z,13.50
2018-09-28T06:48:40.146Z,13.50
2018-09-28T06:49:40.131Z,13.41
2018-09-28T06:50:40.124Z,13.47
2018-09-28T06:51:40.116Z,13.59
2018-09-28T06:52:40.116Z,13.54
2018-09-28T06:53:40.115Z,13.65
2018-09-28T06:54:40.097Z,13.63
2018-09-28T06:55:40.091Z,13.59
2018-09-28T06:56:40.090Z,13.67
2018-09-28T06:57:40.080Z,13.62
2018-09-28T06:58:40.077Z,13.71
2018-09-28T06:59:40.118Z,13.65
2018-09-28T07:00:40.070Z,13.63
2018-09-28T07:01:40.059Z,13.75
2018-09-28T07:02:40.050Z,13.71
2018-09-28T07:03:40.046Z,13.77
2018-09-28T07:04:40.045Z,13.79
2018-09-28T07:05:40.037Z,13.77
2018-09-28T07:06:40.026Z,13.85
2018-09-28T07:07:40.018Z,13.89
2018-09-28T07:08:40.022Z,13.95
2018-09-28T07:09:40.007Z,13.86
2018-09-28T07:10:40.005Z,13.93
2018-09-28T07:11:40.051Z,13.92
2018-09-28T07:12:39.998Z,13.96
2018-09-28T07:13:39.985Z,13.92
2018-09-28T07:14:39.977Z,13.92
2018-09-28T07:15:39.974Z,14.05
2018-09-28T07:16:40.028Z,13.92
2018-09-28T07:17:40.003Z,14.00
2018-09-28T07:18:39.957Z,13.89
2018-09-28T07:19:39.952Z,14.03
2018-09-28T07:20:39.944Z,13.96
2018-09-28T07:21:39.935Z,13.90
2018-09-28T07:22:39.929Z,13.96
2018-09-28T07:23:39.926Z,14.03
2018-09-28T07:24:39.978Z,13.96
2018-09-28T07:25:39.962Z,13.97
2018-09-28T07:26:39.915Z,13.90
2018-09-28T07:27:39.904Z,14.03
2018-09-28T07:28:39.894Z,14.04
2018-09-28T07:29:39.893Z,14.00
2018-09-28T07:30:39.885Z,14.17
2018-09-28T07:31:39.881Z,14.14
2018-09-28T07:32:39.879Z,14.18
2018-09-28T07:33:39.868Z,14.17
2018-09-28T07:34:39.862Z,14.17
2018-09-28T07:35:39.883Z,14.26
2018-09-28T07:36:39.962Z,14.22
2018-09-28T07:37:39.849Z,14.22
2018-09-28T07:38:39.855Z,14.35
2018-09-28T07:39:39.832Z,14.28
2018-09-28T07:40:39.867Z,14.28
2018-09-28T07:41:39.868Z,14.28
2018-09-28T07:42:39.822Z,14.33
2018-09-28T07:43:39.809Z,14.36
2018-09-28T07:44:39.807Z,14.47
2018-09-28T07:45:39.804Z,14.48
2018-09-28T07:46:39.792Z,14.47
2018-09-28T07:47:39.827Z,14.50
2018-09-28T07:48:39.782Z,14.44
2018-09-28T07:49:39.774Z,14.54
2018-09-28T07:50:39.774Z,14.51
2018-09-28T07:51:39.766Z,14.58
2018-09-28T07:52:39.762Z,14.62
2018-09-28T07:53:39.765Z,14.59
2018-09-28T07:54:39.751Z,14.69
2018-09-28T07:55:39.754Z,14.65
2018-09-28T07:56:39.744Z,14.69
2018-09-28T07:57:39.739Z,14.63
2018-09-28T07:58:39.735Z,14.66
2018-09-28T07:59:39.724Z,14.77
2018-09-28T08:00:39.721Z,14.81
2018-09-28T08:01:39.714Z,14.81
2018-09-28T08:02:39.710Z,14.82
2018-09-28T08:03:39.703Z,14.77
2018-09-28T08:04:39.699Z,14.82
2018-09-28T08:05:39.691Z,14.77
2018-09-28T08:06:39.710Z,14.72
2018-09-28T08:07:39.686Z,14.66
2018-09-28T08:08:39.678Z,14.69
2018-09-28T08:09:39.675Z,14.68
2018-09-28T08:10:39.672Z,14.65
2018-09-28T08:11:39.660Z,14.66
2018-09-28T08:12:39.657Z,14.65
2018-09-28T08:13:39.649Z,14.62
2018-09-28T08:14:39.651Z,14.63
2018-09-28T08:15:39.644Z,14.65
2018-09-28T08:16:39.638Z,14.62
2018-09-28T08:17:39.634Z,14.66
2018-09-28T08:18:39.625Z,14.68
2018-09-28T08:19:39.647Z,14.72
2018-09-28T08:20:39.614Z,14.77
2018-09-28T08:21:39.618Z,14.69
2018-09-28T08:22:39.603Z,14.70
2018-09-28T08:23:39.601Z,14.78
2018-09-28T08:24:39.673Z,14.88
2018-09-28T08:25:41.556Z,14.85
2018-09-28T08:26:39.692Z,14.88
2018-09-28T08:27:39.658Z,14.82
2018-09-28T08:28:39.730Z,14.81
2018-09-28T08:29:39.572Z,14.82
2018-09-28T08:30:39.572Z,14.82
2018-09-28T08:31:39.559Z,14.82
2018-09-28T08:32:40.920Z,14.70
2018-09-28T08:33:42.009Z,14.69
2018-09-28T08:34:40.670Z,14.73
2018-09-28T08:35:39.539Z,14.82
2018-09-28T08:36:39.566Z,14.70
2018-09-28T08:37:39.529Z,14.65
2018-09-28T08:38:39.518Z,14.65
2018-09-28T08:39:39.515Z,14.65
2018-09-28T08:40:39.516Z,14.58
2018-09-28T08:41:40.109Z,14.44
2018-09-28T08:42:39.500Z,14.44
2018-09-28T08:43:39.559Z,14.25
2018-09-28T08:44:39.492Z,14.23
2018-09-28T08:45:39.479Z,14.08
2018-09-28T08:46:39.482Z,14.03
2018-09-28T08:47:39.472Z,13.95
2018-09-28T08:48:39.468Z,13.86
2018-09-28T08:49:39.462Z,13.92
2018-09-28T08:50:39.456Z,13.79
2018-09-28T08:51:39.449Z,13.81
2018-09-28T08:52:39.450Z,13.77
2018-09-28T08:53:39.459Z,13.78
2018-09-28T08:54:39.434Z,13.86
2018-09-28T08:55:39.429Z,14.03
2018-09-28T08:56:39.420Z,14.03
2018-09-28T08:57:39.427Z,14.11
2018-09-28T08:58:39.417Z,14.12
2018-09-28T08:59:39.409Z,14.22
2018-09-28T09:00:39.401Z,14.17
2018-09-28T09:01:39.395Z,14.26
2018-09-28T09:02:39.389Z,14.29
2018-09-28T09:03:39.385Z,14.40
2018-09-28T09:04:39.380Z,14.43
2018-09-28T09:05:39.378Z,14.51
2018-09-28T09:06:39.371Z,14.51
2018-09-28T09:07:39.370Z,14.58
2018-09-28T09:08:39.357Z,14.65
2018-09-28T09:09:39.353Z,14.69
2018-09-28T09:10:39.349Z,14.70
2018-09-28T09:11:39.346Z,14.84
2018-09-28T09:12:39.346Z,14.82
2018-09-28T09:13:39.341Z,14.84
2018-09-28T09:14:39.329Z,14.82
2018-09-28T09:15:39.328Z,14.88
2018-09-28T09:16:39.318Z,14.88
2018-09-28T09:17:39.316Z,14.70
2018-09-28T09:18:39.309Z,14.70
2018-09-28T09:19:39.306Z,14.62
2018-09-28T09:20:39.300Z,14.62
2018-09-28T09:21:39.296Z,14.73
2018-09-28T09:22:39.288Z,14.69
2018-09-28T09:23:39.287Z,14.69
2018-09-28T09:24:39.281Z,14.78
2018-09-28T09:25:39.275Z,14.69
2018-09-28T09:26:39.269Z,14.79
2018-09-28T09:27:39.270Z,14.85
2018-09-28T09:28:39.260Z,14.81
2018-09-28T09:29:39.256Z,14.84
2018-09-28T09:30:39.249Z,14.88
2018-09-28T09:31:39.248Z,14.88
2018-09-28T09:32:39.244Z,14.92
2018-09-28T09:33:39.233Z,14.97
2018-09-28T09:34:39.239Z,15.04
2018-09-28T09:35:39.230Z,15.03
2018-09-28T09:36:39.272Z,15.10
2018-09-28T09:37:39.217Z,15.03
2018-09-28T09:38:39.219Z,15.09
2018-09-28T09:39:39.208Z,15.09
2018-09-28T09:40:39.215Z,15.09
2018-09-28T09:41:39.200Z,15.07
2018-09-28T09:42:39.263Z,15.07
2018-09-28T09:43:39.189Z,15.17
2018-09-28T09:44:39.182Z,15.24
2018-09-28T09:45:39.183Z,15.19
2018-09-28T09:46:39.174Z,15.21
2018-09-28T09:47:39.176Z,15.27
2018-09-28T09:48:39.181Z,15.31
2018-09-28T09:49:39.166Z,15.29
2018-09-28T09:50:39.156Z,15.31
2018-09-28T09:51:39.151Z,15.35
2018-09-28T09:52:39.144Z,15.33
2018-09-28T09:53:39.140Z,15.29
2018-09-28T09:54:39.141Z,15.27
2018-09-28T09:55:39.134Z,15.27
2018-09-28T09:56:39.129Z,15.25
2018-09-28T09:57:39.134Z,15.31
2018-09-28T09:58:39.123Z,15.28
2018-09-28T09:59:39.113Z,15.29
2018-09-28T10:00:39.110Z,15.29
2018-09-28T10:01:39.101Z,15.35
2018-09-28T10:02:39.100Z,15.19
2018-09-28T10:03:39.100Z,15.17
2018-09-28T10:04:39.088Z,15.14
2018-09-28T10:05:39.083Z,15.19
2018-09-28T10:06:39.076Z,15.24
2018-09-28T10:07:39.076Z,15.29
2018-09-28T10:08:39.078Z,15.31
2018-09-28T10:09:39.083Z,15.39
2018-09-28T10:10:39.065Z,15.42
2018-09-28T10:11:39.059Z,15.49
2018-09-28T10:12:39.092Z,15.47
2018-09-28T10:13:39.049Z,15.51
2018-09-28T10:14:39.039Z,15.49
2018-09-28T10:15:39.036Z,15.55
2018-09-28T10:16:39.034Z,15.51
2018-09-28T10:17:39.033Z,15.62
2018-09-28T10:18:39.029Z,15.51
2018-09-28T10:19:39.027Z,15.44
2018-09-28T10:20:39.015Z,15.61
2018-09-28T10:21:39.010Z,15.61
2018-09-28T10:22:39.004Z,15.68
2018-09-28T10:23:39.002Z,15.73
2018-09-28T10:24:39.006Z,15.75
2018-09-28T10:25:38.998Z,15.86
2018-09-28T10:26:38.989Z,15.92
2018-09-28T10:27:39.639Z,16.01
2018-09-28T10:28:39.045Z,15.98
2018-09-28T10:29:38.973Z,15.84
2018-09-28T10:30:38.971Z,15.83
2018-09-28T10:31:38.963Z,15.83
2018-09-28T10:32:38.964Z,15.91
2018-09-28T10:33:39.008Z,15.95
2018-09-28T10:34:38.994Z,15.95
2018-09-28T10:35:38.952Z,15.95
2018-09-28T10:36:38.944Z,16.00
2018-09-28T10:37:38.943Z,16.08
2018-09-28T10:38:38.939Z,16.02
2018-09-28T10:39:38.945Z,16.02
2018-09-28T10:40:39.070Z,16.05
2018-09-28T10:41:38.932Z,16.01
2018-09-28T10:42:38.943Z,16.08
2018-09-28T10:43:38.925Z,16.04
2018-09-28T10:44:38.920Z,16.02
2018-09-28T10:45:38.922Z,16.10
2018-09-28T10:46:38.967Z,16.13
2018-09-28T10:47:38.905Z,16.17
2018-09-28T10:48:38.897Z,16.12
2018-09-28T10:49:38.892Z,16.24
2018-09-28T10:50:38.888Z,16.28
2018-09-28T10:51:38.897Z,16.33
2018-09-28T10:52:38.979Z,16.38
2018-09-28T10:53:38.884Z,16.46
2018-09-28T10:54:38.875Z,16.74
2018-09-28T10:55:38.875Z,16.86
2018-09-28T10:56:38.870Z,17.02
2018-09-28T10:57:38.864Z,17.39
2018-09-28T10:58:38.874Z,17.71
2018-09-28T10:59:38.870Z,17.94
2018-09-28T11:00:38.863Z,18.13
2018-09-28T11:01:38.860Z,18.43
2018-09-28T11:02:38.854Z,18.78
2018-09-28T11:03:38.863Z,18.81
2018-09-28T11:04:38.923Z,18.92
2018-09-28T11:05:38.860Z,18.84
2018-09-28T11:06:38.854Z,18.66
2018-09-28T11:07:38.853Z,18.23
2018-09-28T11:08:38.909Z,18.11
2018-09-28T11:09:38.864Z,18.07
2018-09-28T11:10:38.906Z,17.85
2018-09-28T11:11:38.852Z,17.92
2018-09-28T11:12:38.856Z,17.94
2018-09-28T11:13:38.857Z,18.00
2018-09-28T11:14:38.858Z,18.01
2018-09-28T11:15:38.871Z,18.15
2018-09-28T11:16:38.856Z,18.25
2018-09-28T11:17:38.856Z,18.37
2018-09-28T11:18:38.853Z,18.59
2018-09-28T11:19:38.855Z,18.77
2018-09-28T11:20:38.862Z,18.90
2018-09-28T11:21:38.889Z,18.89
2018-09-28T11:22:38.856Z,19.07
2018-09-28T11:23:40.748Z,19.09
2018-09-28T11:24:40.447Z,19.19
2018-09-28T11:25:40.642Z,19.45
2018-09-28T11:26:40.075Z,19.47
2018-09-28T11:27:38.899Z,19.56
2018-09-28T11:28:39.020Z,19.63
2018-09-28T11:29:39.009Z,19.73
2018-09-28T11:30:38.925Z,19.59
2018-09-28T11:31:38.868Z,19.41
2018-09-28T11:32:38.895Z,19.07
2018-09-28T11:33:39.079Z,18.70
2018-09-28T11:34:38.943Z,18.75
2018-09-28T11:35:39.092Z,18.68
2018-09-28T11:36:38.870Z,18.70
2018-09-28T11:37:38.869Z,18.73
2018-09-28T11:38:38.870Z,18.78
2018-09-28T11:39:40.827Z,18.75
2018-09-28T11:40:38.867Z,18.75
2018-09-28T11:41:39.467Z,18.86
2018-09-28T11:42:40.204Z,18.84
2018-09-28T11:43:39.002Z,18.73
2018-09-28T11:44:38.879Z,18.59
2018-09-28T11:45:38.918Z,18.52
2018-09-28T11:46:39.682Z,18.44
2018-09-28T11:47:39.610Z,18.55
2018-09-28T11:48:40.257Z,18.41
2018-09-28T11:49:38.870Z,18.28
2018-09-28T11:50:38.871Z,18.08
2018-09-28T11:51:38.887Z,18.10
2018-09-28T11:52:38.869Z,18.15
2018-09-28T11:53:38.869Z,18.05
2018-09-28T11:54:38.868Z,18.01
2018-09-28T11:55:39.381Z,18.10
2018-09-28T11:56:38.989Z,17.92
2018-09-28T11:57:38.883Z,17.95
2018-09-28T11:58:38.958Z,17.97
2018-09-28T11:59:38.870Z,18.20
2018-09-28T12:00:38.871Z,18.28
2018-09-28T12:01:38.856Z,18.44
2018-09-28T12:02:38.864Z,18.52
2018-09-28T12:03:38.931Z,18.55
2018-09-28T12:04:38.861Z,18.71
2018-09-28T12:05:38.868Z,18.58
2018-09-28T12:06:39.128Z,18.52
2018-09-28T12:07:38.861Z,18.53
2018-09-28T12:08:38.935Z,18.55
2018-09-28T12:09:39.043Z,18.71
2018-09-28T12:10:39.095Z,18.92
2018-09-28T12:11:39.036Z,18.83
2018-09-28T12:12:39.061Z,18.89
2018-09-28T12:13:38.967Z,18.93
2018-09-28T12:14:38.996Z,19.04
2018-09-28T12:15:38.915Z,19.09
2018-09-28T12:16:38.995Z,19.08
2018-09-28T12:17:38.940Z,19.12
2018-09-28T12:18:38.990Z,18.89
2018-09-28T12:19:38.975Z,18.86
2018-09-28T12:20:38.993Z,18.86
2018-09-28T12:21:38.989Z,18.81
2018-09-28T12:22:38.937Z,18.92
2018-09-28T12:23:39.802Z,18.99
2018-09-28T12:24:39.004Z,18.98
2018-09-28T12:25:39.045Z,19.07
2018-09-28T12:26:38.988Z,19.24
2018-09-28T12:27:39.180Z,19.48
2018-09-28T12:28:39.069Z,19.48
2018-09-28T12:29:41.312Z,19.67
2018-09-28T12:30:41.590Z,19.91
2018-09-28T12:31:42.554Z,20.03
2018-09-28T12:32:40.836Z,20.07
2018-09-28T12:33:40.617Z,20.22
2018-09-28T12:34:42.438Z,20.16
2018-09-28T12:35:39.448Z,20.19
2018-09-28T12:36:40.456Z,20.07
2018-09-28T12:37:40.515Z,19.95
2018-09-28T12:38:41.467Z,19.84
2018-09-28T12:39:38.956Z,19.86
2018-09-28T12:40:38.911Z,19.85
2018-09-28T12:41:41.523Z,19.94
2018-09-28T12:42:42.039Z,19.99
2018-09-28T12:43:43.602Z,19.96
2018-09-28T12:44:40.896Z,20.09
2018-09-28T12:45:41.518Z,20.13
2018-09-28T12:46:38.929Z,20.29
2018-09-28T12:47:38.949Z,20.37
2018-09-28T12:48:39.129Z,20.26
2018-09-28T12:49:38.996Z,20.29
2018-09-28T12:50:39.004Z,20.37
2018-09-28T12:51:39.061Z,20.51
2018-09-28T12:52:38.944Z,20.60
2018-09-28T12:53:39.139Z,20.51